Time;durP1;ratioP1;P1;durP2;ratioP2;P2;SDS_P1;SDS_P2;PMS_P1;PMS_P2;Temp;Humidity;BMP_temperature;BMP_pressure;BME280_temperature;BME280_humidity;BME280_pressure;Samples;Min_cycle;Max_cycle;Signal;HPM_P1;HPM_P2
2023/02/13 00:01:22;;;;;;;3.20;1.87;;;14.60;99.90;;;14.52;49.36;103303.56;6138588;22;97137;-60
2023/02/13 00:03:48;;;;;;;3.57;1.73;;;14.60;99.90;;;14.52;48.87;103297.38;6117976;22;102024;-55
2023/02/13 00:06:14;;;;;;;5.37;2.37;;;14.60;99.90;;;14.58;48.23;103287.56;6139888;22;97299;-54
2023/02/13 00:08:40;;;;;;;6.83;2.37;;;14.70;99.90;;;14.61;48.74;103291.06;6147603;22;98691;-52
2023/02/13 00:11:06;;;;;;;3.57;1.90;;;14.70;99.90;;;14.63;48.99;103291.97;6116853;22;97596;-58
2023/02/13 00:13:34;;;;;;;4.93;1.77;;;14.70;99.90;;;14.55;49.12;103284.94;6127045;22;97379;-57
2023/02/13 00:16:03;;;;;;;3.23;1.50;;;14.50;99.90;;;14.61;48.58;103288.41;6131361;22;98182;-59
2023/02/13 00:18:33;;;;;;;2.03;1.00;;;14.60;99.90;;;14.61;48.39;103288.41;6134844;22;97768;-59
2023/02/13 00:21:03;;;;;;;2.73;1.37;;;14.60;99.90;;;14.62;48.73;103282.25;6132480;22;97215;-60
2023/02/13 00:23:31;;;;;;;0.97;0.73;;;14.70;99.90;;;14.63;48.46;103273.38;6134227;22;98585;-62
2023/02/13 00:25:57;;;;;;;2.20;0.90;;;14.70;99.90;;;14.70;48.37;103275.03;6128345;22;97361;-62
2023/02/13 00:28:24;;;;;;;2.37;1.03;;;14.80;99.90;;;14.73;48.20;103278.53;6102003;22;97707;-62
2023/02/13 00:30:50;;;;;;;2.37;1.13;;;14.80;99.90;;;14.69;48.48;103273.28;6133474;22;97021;-59
2023/02/13 00:33:16;;;;;;;1.90;1.00;;;14.80;99.90;;;14.74;48.21;103261.69;6127076;22;102582;-54
2023/02/13 00:35:42;;;;;;;4.00;1.37;;;14.90;99.90;;;14.75;48.68;103268.75;6134471;22;98114;-62
2023/02/13 00:38:08;;;;;;;0.80;0.50;;;14.90;99.90;;;14.81;48.02;103271.38;6129065;22;113268;-62
2023/02/13 00:40:34;;;;;;;1.57;0.70;;;14.90;99.90;;;14.83;47.94;103266.03;6131300;22;97306;-61
2023/02/13 00:42:59;;;;;;;2.40;1.47;;;15.00;99.90;;;14.90;47.76;103267.72;6129055;22;98149;-57
2023/02/13 00:45:25;;;;;;;3.40;2.20;;;15.00;99.90;;;14.95;47.53;103263.22;6133414;22;111624;-57
2023/02/13 00:47:51;;;;;;;1.70;0.77;;;15.10;99.90;;;14.98;47.65;103259.66;6134024;22;117417;-59
2023/02/13 00:50:17;;;;;;;2.90;1.20;;;15.10;99.90;;;14.99;47.57;103253.44;6129560;22;97318;-59
2023/02/13 00:52:43;;;;;;;4.20;1.77;;;15.10;99.90;;;14.90;47.61;103251.78;6133644;22;97620;-62
2023/02/13 00:55:09;;;;;;;2.17;0.90;;;15.10;99.90;;;14.96;47.70;103251.69;6102677;22;98909;-59
2023/02/13 00:57:34;;;;;;;1.03;0.87;;;15.10;99.90;;;14.93;47.41;103257.06;6132074;22;97145;-58
2023/02/13 01:00:00;;;;;;;3.90;1.63;;;15.00;99.90;;;14.95;47.44;103249.94;6128830;22;98040;-57
2023/02/13 01:02:26;;;;;;;2.73;1.53;;;15.10;99.90;;;14.79;48.27;103256.34;6132589;22;98139;-56
2023/02/13 01:04:52;;;;;;;3.63;1.80;;;14.80;99.90;;;14.77;48.45;103242.22;6133584;22;103991;-58
2023/02/13 01:07:18;;;;;;;2.50;1.27;;;14.80;99.90;;;14.67;48.47;103259.16;6127868;22;97543;-60
2023/02/13 01:09:44;;;;;;;1.27;0.70;;;14.70;99.90;;;14.70;47.83;103248.47;6135658;22;98255;-61
2023/02/13 01:12:09;;;;;;;5.00;1.73;;;14.80;99.90;;;14.75;47.98;103249.28;6129301;22;97384;-62
2023/02/13 01:14:35;;;;;;;1.33;0.73;;;14.90;99.90;;;14.82;47.87;103253.66;6135436;22;100513;-56
2023/02/13 01:17:01;;;;;;;4.40;2.27;;;14.90;99.90;;;14.78;48.36;103251.94;6130736;22;98848;-59
2023/02/13 01:19:27;;;;;;;4.90;1.87;;;14.80;99.90;;;14.77;48.17;103244.88;6133868;22;102702;-60
2023/02/13 01:21:53;;;;;;;1.70;0.97;;;14.80;99.90;;;14.75;48.09;103246.63;6134033;22;97435;-59
2023/02/13 01:24:18;;;;;;;1.10;0.70;;;14.80;99.90;;;14.78;47.68;103251.94;6129724;22;115354;-60
2023/02/13 01:26:44;;;;;;;1.20;0.63;;;14.90;99.90;;;14.81;47.68;103246.56;6132672;22;110948;-60
2023/02/13 01:29:12;;;;;;;1.23;0.90;;;15.00;99.90;;;14.90;47.73;103241.16;6129863;22;97478;-61
2023/02/13 01:31:38;;;;;;;3.40;1.33;;;15.10;99.90;;;14.87;47.73;103242.03;6134269;22;97814;-62
2023/02/13 01:34:05;;;;;;;1.10;0.50;;;15.10;99.90;;;14.93;47.30;103250.88;6130778;22;98718;-62
2023/02/13 01:36:31;;;;;;;1.20;0.70;;;15.20;99.90;;;14.97;46.98;103252.56;6133972;22;108384;-59
2023/02/13 01:38:58;;;;;;;2.80;1.30;;;15.20;99.90;;;14.93;47.75;103251.75;6128742;22;97691;-62
2023/02/13 01:41:26;;;;;;;3.57;1.43;;;15.10;99.90;;;14.98;47.69;103239.25;6132052;22;97351;-62
2023/02/13 01:43:58;;;;;;;1.77;0.90;;;15.10;99.90;;;14.99;47.44;103243.69;6133147;22;98108;-58
2023/02/13 01:46:41;;;;;;;1.97;0.80;;;15.10;99.90;;;14.97;47.16;103236.63;6127813;22;100979;-58
2023/02/13 01:49:22;;;;;;;3.67;1.73;;;15.20;99.90;;;14.96;47.81;103235.75;6130758;22;97884;-61
2023/02/13 01:51:53;;;;;;;1.07;0.50;;;15.20;99.90;;;15.01;47.06;103235.69;6108022;22;98741;-61
2023/02/13 01:54:29;;;;;;;3.23;1.50;;;15.20;99.90;;;14.81;48.70;103235.94;6103763;22;98044;-62
2023/02/13 01:57:02;;;;;;;1.40;0.70;;;15.00;99.90;;;14.81;48.04;103247.44;6135505;22;97060;-59
2023/02/13 01:59:41;;;;;;;4.17;1.80;;;14.80;99.90;;;14.72;48.58;103246.69;6131454;22;97624;-62
2023/02/13 02:02:07;;;;;;;4.67;2.13;;;14.80;99.90;;;14.64;48.72;103243.25;6106774;22;98147;-57
2023/02/13 02:04:37;;;;;;;1.03;0.70;;;14.60;99.90;;;14.68;48.26;103239.66;6132235;22;117854;-56
2023/02/13 02:07:25;;;;;;;1.37;0.87;;;14.70;99.90;;;14.76;47.86;103237.78;6104528;22;99754;-61
2023/02/13 02:09:57;;;;;;;1.40;0.70;;;14.90;99.90;;;14.78;47.76;103241.31;6127844;22;97836;-57
2023/02/13 02:12:44;;;;;;;2.50;1.37;;;14.90;99.90;;;14.77;47.95;103244.88;6153078;22;97133;-61
2023/02/13 02:15:11;;;;;;;1.67;1.10;;;14.80;99.90;;;14.78;47.20;103246.63;6124366;22;97113;-60
2023/02/13 02:17:36;;;;;;;2.23;1.33;;;14.90;99.90;;;14.77;47.80;103237.78;6126195;22;101926;-57
2023/02/13 02:20:54;;;;;;;1.53;0.60;;;14.90;99.90;;;14.77;48.06;103242.22;6150802;22;112526;-55
2023/02/13 02:23:54;;;;;;;4.53;1.97;;;14.80;99.90;;;14.71;48.17;103244.91;6150729;22;97182;-60
2023/02/13 02:26:43;;;;;;;1.20;0.60;;;14.80;99.90;;;14.76;48.04;103245.75;6149601;22;97800;-58
2023/02/13 02:29:43;;;;;;;1.23;0.80;;;14.90;99.90;;;14.85;47.59;103242.97;6151182;22;97563;-62
2023/02/13 02:32:48;;;;;;;0.83;0.67;;;15.00;99.90;;;14.76;48.07;103245.75;6153017;22;97294;-60
2023/02/13 02:35:23;;;;;;;2.57;0.67;;;14.90;99.90;;;14.80;47.83;103243.03;6152315;22;97444;-61
2023/02/13 02:38:10;;;;;;;1.60;1.00;;;15.00;99.90;;;14.61;48.90;103243.25;6128627;22;97576;-59
2023/02/13 02:40:54;;;;;;;2.27;1.40;;;14.80;99.90;;;14.67;48.24;103243.22;6125014;22;103218;-59
2023/02/13 02:43:32;;;;;;;1.70;0.70;;;14.70;99.90;;;14.74;48.05;103244.88;6148159;22;97522;-59
2023/02/13 02:46:24;;;;;;;2.20;1.33;;;14.80;99.90;;;14.76;48.31;103248.44;6150569;22;97191;-57
2023/02/13 02:52:37;;;;;;;1.33;0.80;;;14.60;99.90;;;14.41;49.46;103241.69;6124147;22;100796;-62
2023/02/13 02:55:35;;;;;;;2.43;1.33;;;14.20;99.90;;;14.36;49.08;103243.53;6151742;22;97099;-57
2023/02/13 03:06:54;;;;;;;1.50;1.00;;;13.80;99.90;;;13.91;50.38;103235.13;6126735;22;97201;-57
2023/02/13 03:15:03;;;;;;;0.90;0.60;;;13.80;99.90;;;14.00;49.96;103240.31;6129052;22;102605;-57
2023/02/13 03:23:52;;;;;;;1.90;1.03;;;13.80;99.90;;;14.02;50.15;103242.06;6149674;22;97332;-60
2023/02/13 03:26:48;;;;;;;1.53;0.63;;;13.90;99.90;;;14.00;50.18;103242.97;6151274;22;99892;-62
2023/02/13 03:32:44;;;;;;;2.83;1.80;;;13.80;99.90;;;13.72;52.21;103243.22;6149285;22;96879;-59
2023/02/13 03:38:17;;;;;;;0.67;0.43;;;13.40;99.90;;;13.84;50.46;103243.13;6150820;22;97057;-62
2023/02/13 03:44:11;;;;;;;3.93;1.77;;;14.00;99.90;;;13.98;50.50;103242.09;6124647;22;97428;-59
2023/02/13 03:46:42;;;;;;;4.43;2.20;;;13.90;99.90;;;14.06;50.17;103243.81;6125684;22;101448;-55
2023/02/13 03:52:15;;;;;;;1.77;1.10;;;13.90;99.90;;;13.93;50.61;103238.63;6129083;22;97109;-56
2023/02/13 04:00:39;;;;;;;2.77;1.53;;;13.60;99.90;;;13.67;52.00;103241.50;6128666;22;101309;-58
2023/02/13 04:03:15;;;;;;;2.53;1.60;;;13.50;99.90;;;13.70;51.14;103235.28;6151384;22;97201;-62
2023/02/13 04:05:49;;;;;;;4.80;2.47;;;13.40;99.90;;;13.71;51.11;103237.03;6127190;22;97121;-59
2023/02/13 04:08:15;;;;;;;2.83;1.23;;;13.60;99.90;;;13.92;50.41;103236.88;6122858;22;98302;-53
2023/02/13 04:11:06;;;;;;;2.27;1.10;;;13.90;99.90;;;14.03;49.94;103246.47;6128617;22;97864;-60
2023/02/13 04:14:00;;;;;;;2.37;1.73;;;14.00;99.90;;;13.76;51.59;103245.84;6151431;22;97217;-61
2023/02/13 04:17:02;;;;;;;2.00;1.30;;;13.70;99.90;;;13.71;51.23;103247.66;6120727;22;96807;-58
2023/02/13 04:19:28;;;;;;;1.70;0.90;;;13.50;99.90;;;13.64;51.26;103251.25;6108884;22;101673;-58
2023/02/13 04:22:00;;;;;;;4.17;2.00;;;13.50;99.90;;;13.58;51.87;103251.28;6127270;22;96993;-58
2023/02/13 04:24:26;;;;;;;3.73;1.43;;;13.40;99.90;;;13.58;51.56;103240.66;6148790;22;104236;-57
2023/02/13 04:26:53;;;;;;;5.03;2.20;;;13.40;99.90;;;13.66;51.02;103246.81;6129337;22;97361;-60
2023/02/13 04:29:22;;;;;;;4.17;2.43;;;13.60;99.90;;;13.75;50.65;103241.44;6122626;22;97313;-60
2023/02/13 04:31:48;;;;;;;0.80;0.40;;;13.60;99.90;;;13.92;50.56;103252.78;6153961;22;97504;-54
2023/02/13 04:34:14;;;;;;;1.17;0.90;;;13.90;99.90;;;14.07;49.91;103242.94;6151270;22;96715;-57
2023/02/13 04:36:40;;;;;;;0.40;0.40;;;14.20;99.90;;;14.20;49.63;103249.88;6152702;22;97564;-54
2023/02/13 04:39:05;;;;;;;5.43;2.10;;;14.30;99.90;;;14.32;49.18;103249.78;6150695;22;102162;-60
2023/02/13 04:41:31;;;;;;;3.60;1.90;;;14.50;99.90;;;14.28;49.61;103248.03;6151685;22;126865;-59
2023/02/13 04:43:57;;;;;;;4.07;1.90;;;14.30;99.90;;;14.19;50.02;103245.47;6150314;22;97977;-60
2023/02/13 04:46:23;;;;;;;2.23;1.30;;;14.10;99.90;;;14.11;50.30;103242.00;6156005;22;97291;-61
2023/02/13 04:48:49;;;;;;;4.03;1.77;;;13.90;99.90;;;13.98;50.44;103242.09;6153980;22;97762;-53
2023/02/13 04:51:14;;;;;;;2.07;1.17;;;13.80;99.90;;;14.05;50.00;103242.06;6149539;22;109608;-56
2023/02/13 04:53:40;;;;;;;2.53;1.20;;;13.90;99.90;;;14.02;49.51;103242.06;6155362;22;97598;-58
2023/02/13 04:56:06;;;;;;;4.93;2.57;;;13.90;99.90;;;14.11;49.63;103242.00;6150233;22;106258;-58
2023/02/13 04:58:32;;;;;;;3.23;1.87;;;14.10;99.90;;;14.13;49.77;103246.41;6153917;22;97952;-59
2023/02/13 05:00:58;;;;;;;1.90;1.40;;;14.00;99.90;;;14.08;50.11;103242.03;6155202;22;97415;-60
2023/02/13 05:03:24;;;;;;;1.67;0.83;;;13.90;99.90;;;14.18;49.85;103243.72;6149205;22;99017;-56
2023/02/13 05:05:49;;;;;;;0.57;0.50;;;14.00;99.90;;;14.26;49.61;103239.19;6155379;22;97586;-59
2023/02/13 05:08:16;;;;;;;4.30;2.43;;;14.20;99.90;;;14.29;49.13;103241.81;6148063;22;97887;-56
2023/02/13 05:10:41;;;;;;;1.43;0.93;;;14.30;99.90;;;14.24;49.33;103244.53;6154407;22;97235;-58
2023/02/13 05:13:07;;;;;;;5.13;1.73;;;14.20;99.90;;;14.11;48.95;103242.00;6150856;22;97239;-59
2023/02/13 05:15:33;;;;;;;5.03;2.27;;;14.00;99.90;;;14.23;49.08;103242.75;6155323;22;97213;-55
2023/02/13 05:17:59;;;;;;;1.90;0.90;;;14.20;99.90;;;14.32;49.09;103241.81;6142315;22;97062;-60
2023/02/13 05:20:25;;;;;;;1.13;1.03;;;14.30;99.90;;;14.32;49.08;103241.81;6152137;22;109612;-59
2023/02/13 05:25:40;;;;;;;1.33;0.90;;;14.10;99.90;;;14.23;49.46;103241.88;6152000;22;97061;-50
2023/02/13 05:29:17;;;;;;;2.63;1.47;;;14.00;99.90;;;14.03;50.05;103238.53;6152236;22;97642;-59
2023/02/13 05:30:55;;;;;;;5.40;2.37;;;13.80;99.90;;;14.03;49.23;103244.72;6156828;22;97366;-57
2023/02/13 05:33:20;;;;;;;5.93;2.40;;;13.90;99.90;;;13.86;50.88;103239.56;6153069;22;97312;-55
2023/02/13 05:35:46;;;;;;;4.30;2.13;;;13.60;99.90;;;13.67;50.97;103238.84;6156388;22;97499;-62
2023/02/13 05:38:12;;;;;;;4.17;2.13;;;13.30;99.90;;;13.67;50.69;103243.25;6150277;22;114401;-57
2023/02/13 05:40:38;;;;;;;1.40;1.03;;;13.30;99.90;;;13.55;51.41;103240.69;6155234;22;99559;-58
2023/02/13 05:43:04;;;;;;;2.93;1.60;;;13.10;99.90;;;13.50;51.46;103243.41;6150626;22;97435;-56
2023/02/13 05:45:29;;;;;;;1.37;0.90;;;13.10;99.90;;;13.47;51.50;103247.84;6156402;22;97323;-59
2023/02/13 05:47:55;;;;;;;1.40;0.80;;;13.10;99.90;;;13.48;51.37;103249.59;6153413;22;127041;-58
2023/02/13 05:50:21;;;;;;;3.17;1.03;;;13.10;99.90;;;13.52;51.10;103246.03;6154533;22;99041;-49
2023/02/13 05:52:47;;;;;;;3.33;1.33;;;13.20;99.90;;;13.56;51.25;103250.41;6156001;22;96642;-57
2023/02/13 05:55:12;;;;;;;3.00;1.53;;;13.30;99.90;;;13.54;51.00;103249.53;6154991;22;97247;-59
2023/02/13 05:57:38;;;;;;;3.40;1.40;;;13.20;99.90;;;13.59;50.69;103247.72;6155836;22;96810;-56
2023/02/13 06:00:05;;;;;;;2.07;1.23;;;13.30;99.90;;;13.57;51.05;103254.81;6154208;22;97212;-61
2023/02/13 06:02:31;;;;;;;1.77;1.07;;;13.30;99.90;;;13.53;51.43;103250.44;6157898;22;96794;-61
2023/02/13 06:04:56;;;;;;;1.47;0.90;;;13.20;99.90;;;13.65;51.04;103250.34;6159194;22;97307;-56
2023/02/13 06:07:22;;;;;;;1.70;0.97;;;13.30;99.90;;;13.72;51.05;103246.75;6126489;22;113285;-57
2023/02/13 06:09:48;;;;;;;4.50;1.97;;;13.50;99.90;;;13.72;49.82;103241.44;6130704;22;97521;-54
2023/02/13 06:12:14;;;;;;;2.10;1.23;;;13.60;99.90;;;13.74;50.73;103244.97;6153579;22;97642;-58
2023/02/13 06:14:40;;;;;;;5.23;2.47;;;13.50;99.90;;;13.67;50.92;103244.16;6156563;22;97273;-58
2023/02/13 06:17:05;;;;;;;3.17;1.90;;;13.40;99.90;;;13.51;51.27;103244.28;6152251;22;118577;-60
2023/02/13 06:19:31;;;;;;;5.30;2.17;;;13.20;99.90;;;13.36;51.68;103238.19;6157736;22;97627;-57
2023/02/13 06:21:57;;;;;;;2.80;1.63;;;13.00;99.90;;;13.28;51.83;103237.34;6158558;22;97235;-60
2023/02/13 06:24:23;;;;;;;2.67;1.53;;;12.90;99.90;;;13.17;52.18;103239.16;6153695;22;97983;-60
2023/02/13 06:26:48;;;;;;;3.53;1.83;;;12.80;99.90;;;13.17;52.01;103239.16;6155349;22;98094;-58
2023/02/13 06:29:14;;;;;;;2.10;1.13;;;12.80;99.90;;;13.16;52.23;103242.66;6126470;22;97384;-58
2023/02/13 06:31:40;;;;;;;5.03;1.93;;;12.70;99.90;;;13.13;52.32;103245.34;6156302;22;98181;-61
2023/02/13 06:34:06;;;;;;;2.47;1.30;;;12.70;99.90;;;13.15;52.25;103251.50;6154251;22;97365;-56
2023/02/13 06:36:33;;;;;;;3.67;1.67;;;12.70;99.90;;;13.19;52.20;103248.00;6156572;22;97964;-57
2023/02/13 06:38:58;;;;;;;1.00;0.63;;;12.80;99.90;;;13.34;51.68;103247.91;6157612;22;97348;-54
2023/02/13 06:41:24;;;;;;;2.63;1.03;;;13.00;99.90;;;13.50;51.34;103250.47;6154481;22;97376;-56
2023/02/13 06:43:50;;;;;;;3.93;1.50;;;13.40;99.90;;;13.65;50.59;103243.28;6155649;22;97467;-62
2023/02/13 06:46:16;;;;;;;2.03;1.27;;;13.60;99.90;;;13.78;49.53;103249.38;6153471;22;97536;-58
2023/02/13 06:48:41;;;;;;;1.93;0.77;;;13.80;99.90;;;13.83;50.34;103242.25;6157046;22;101970;-56
2023/02/13 06:51:07;;;;;;;3.07;1.70;;;13.80;99.90;;;13.77;49.07;103247.63;6152260;22;97136;-54
2023/02/13 06:53:33;;;;;;;1.90;1.17;;;13.70;99.90;;;13.72;50.88;103244.09;6157590;22;96951;-58
2023/02/13 06:56:05;;;;;;;2.83;1.87;;;13.50;99.90;;;13.69;49.68;103249.44;6158194;22;97338;-57
2023/02/13 06:58:31;;;;;;;3.80;2.20;;;13.40;99.90;;;13.58;50.52;103245.97;6151466;22;102584;-55
2023/02/13 07:00:56;;;;;;;4.57;2.13;;;13.20;99.90;;;13.44;50.72;103247.84;6157558;22;96913;-55
2023/02/13 07:03:22;;;;;;;6.87;2.90;;;13.00;99.90;;;13.38;51.19;103249.66;6151649;22;96932;-56
2023/02/13 07:05:50;;;;;;;3.13;2.30;;;12.90;99.90;;;13.30;51.71;103243.50;6156000;22;97517;-57
2023/02/13 07:08:17;;;;;;;0.80;0.70;;;12.80;99.90;;;13.35;51.71;103241.72;6154125;22;96737;-55
2023/02/13 07:10:43;;;;;;;1.43;0.87;;;12.80;99.90;;;13.23;51.96;103236.50;6157906;22;97314;-56
2023/02/13 07:13:09;;;;;;;1.90;0.87;;;12.80;99.90;;;13.18;51.78;103246.25;6151248;22;99546;-55
2023/02/13 07:15:37;;;;;;;1.80;1.20;;;12.70;99.90;;;13.07;52.20;103250.69;6159288;22;98347;-57
2023/02/13 07:18:04;;;;;;;5.33;1.77;;;12.60;99.90;;;13.03;52.51;103259.56;6152878;22;96972;-56
2023/02/13 07:20:31;;;;;;;4.37;2.73;;;12.50;99.90;;;12.89;52.82;103249.00;6156449;22;103158;-57
2023/02/13 07:23:01;;;;;;;1.17;0.80;;;12.40;99.90;;;13.04;52.52;103253.34;6157061;22;97389;-56
2023/02/13 07:25:28;;;;;;;1.77;0.93;;;12.60;99.90;;;13.08;52.33;103249.78;6152624;22;101784;-55
2023/02/13 07:27:54;;;;;;;4.70;2.40;;;12.80;99.90;;;13.27;50.26;103254.13;6129098;22;97646;-54
2023/02/13 07:30:20;;;;;;;5.60;2.20;;;13.10;99.90;;;13.28;51.37;103247.94;6152257;22;96921;-57
2023/02/13 07:32:46;;;;;;;2.50;1.30;;;13.00;99.90;;;13.32;51.21;103255.00;6153832;22;97859;-54
2023/02/13 07:35:12;;;;;;;2.23;0.90;;;13.00;99.90;;;13.33;51.83;103256.75;6146156;22;97505;-56
2023/02/13 07:37:37;;;;;;;1.90;0.93;;;13.00;99.90;;;13.40;51.71;103253.16;6155122;22;97642;-55
2023/02/13 07:40:04;;;;;;;3.17;1.77;;;13.10;99.90;;;13.42;51.61;103254.94;6147719;22;104626;-56
2023/02/13 07:42:36;;;;;;;2.10;1.23;;;13.10;99.90;;;13.43;51.16;103251.38;6154683;22;97905;-56
2023/02/13 07:45:04;;;;;;;1.23;0.67;;;13.10;99.90;;;13.62;51.10;103259.22;6152118;22;97292;-56
2023/02/13 07:47:30;;;;;;;2.10;1.00;;;13.50;99.90;;;13.79;50.57;103251.13;6154706;22;97402;-55
2023/02/13 07:49:56;;;;;;;1.10;0.70;;;13.70;99.90;;;13.86;50.30;103254.59;6155734;22;102342;-57
2023/02/13 07:52:21;;;;;;;3.87;2.10;;;13.80;99.90;;;13.91;49.57;103253.69;6149320;22;107270;-58
2023/02/13 07:54:47;;;;;;;0.87;0.80;;;13.80;99.90;;;13.96;49.88;103254.50;6156542;22;100524;-57
2023/02/13 07:57:16;;;;;;;3.77;1.63;;;13.90;99.90;;;13.89;49.08;103258.13;6147648;22;97052;-58
2023/02/13 07:59:42;;;;;;;6.60;2.67;;;13.80;99.90;;;13.93;48.53;103258.97;6154176;22;97028;-58
2023/02/13 08:02:14;;;;;;;2.73;1.17;;;13.80;99.90;;;13.77;50.10;103257.34;6149501;22;106990;-57
2023/02/13 08:04:44;;;;;;;5.30;2.67;;;13.50;99.90;;;13.42;50.47;103250.50;6153513;22;97002;-58
2023/02/13 08:07:11;;;;;;;4.40;2.50;;;13.10;99.90;;;13.20;51.13;103247.13;6150138;22;101839;-58
2023/02/13 08:12:21;;;;;;;4.83;2.03;;;12.60;99.90;;;12.80;53.39;103254.34;6155327;22;97443;-57
2023/02/13 08:14:47;;;;;;;5.60;2.00;;;12.40;99.90;;;12.65;52.77;103255.28;6154615;22;98120;-57
2023/02/13 08:17:13;;;;;;;4.90;2.50;;;12.30;99.90;;;12.41;53.61;103260.63;6152162;22;115959;-58
2023/02/13 08:19:39;;;;;;;3.63;1.73;;;12.10;99.90;;;12.44;54.10;103265.91;6155956;22;97067;-57
2023/02/13 08:22:05;;;;;;;1.53;1.13;;;12.10;99.90;;;12.39;54.22;103257.09;6152700;22;97378;-57
2023/02/13 08:24:32;;;;;;;5.67;2.30;;;12.00;99.90;;;12.38;53.79;103263.28;6157478;22;97398;-58
2023/02/13 08:26:57;;;;;;;2.73;1.80;;;12.10;99.90;;;12.31;54.05;103261.53;6128697;22;98905;-57
2023/02/13 08:29:23;;;;;;;4.80;2.03;;;12.00;99.90;;;12.48;53.40;103267.69;6151548;22;113335;-57
2023/02/13 08:31:49;;;;;;;3.50;1.70;;;12.20;99.90;;;12.39;54.24;103271.22;6157664;22;97246;-57
2023/02/13 08:34:15;;;;;;;5.17;2.53;;;12.10;99.90;;;12.31;54.10;103269.50;6152974;22;97509;-57
2023/02/13 08:36:40;;;;;;;3.80;1.83;;;12.10;99.90;;;12.28;54.69;103264.16;6155646;22;97582;-57
2023/02/13 08:39:09;;;;;;;3.60;1.87;;;12.00;99.90;;;12.43;54.20;103269.44;6151688;22;96974;-55
2023/02/13 08:41:35;;;;;;;1.60;0.90;;;12.10;99.90;;;12.40;54.30;103274.75;6155043;22;97148;-57
2023/02/13 08:44:00;;;;;;;4.07;2.23;;;12.10;99.90;;;12.61;53.55;103269.41;6125358;22;99607;-63
2023/02/13 08:46:26;;;;;;;4.10;2.03;;;12.30;99.90;;;12.68;52.36;103271.16;6154997;22;101042;-57
2023/02/13 08:48:52;;;;;;;4.17;1.10;;;12.50;99.90;;;12.84;52.99;103256.06;6155977;22;97261;-57
2023/02/13 08:51:18;;;;;;;4.73;2.63;;;12.60;99.90;;;12.91;51.75;103262.25;6127626;22;96957;-57
2023/02/13 08:53:43;;;;;;;3.13;2.00;;;12.70;99.90;;;12.90;52.89;103258.72;6129142;22;97858;-57
2023/02/13 08:56:10;;;;;;;4.33;2.23;;;12.60;99.90;;;12.70;53.02;103257.91;6152567;22;115537;-57
2023/02/13 08:58:36;;;;;;;3.80;2.13;;;12.50;99.90;;;12.56;53.46;103260.59;6156979;22;96902;-57
2023/02/13 09:01:06;;;;;;;3.20;1.87;;;12.30;99.90;;;12.54;54.02;103262.34;6150310;22;99387;-58
2023/02/13 09:03:33;;;;;;;4.07;2.33;;;12.20;99.90;;;12.48;53.74;103265.03;6129760;22;97953;-56
2023/02/13 09:06:01;;;;;;;5.77;2.53;;;12.20;99.90;;;12.63;52.90;103272.94;6154237;22;96579;-56
2023/02/13 09:08:27;;;;;;;3.90;1.93;;;12.40;99.90;;;12.65;52.94;103276.47;6152537;22;97232;-57
2023/02/13 09:11:03;;;;;;;5.53;2.87;;;12.50;99.90;;;12.56;53.39;103265.88;6155318;22;97074;-57
2023/02/13 09:13:32;;;;;;;5.90;2.70;;;12.40;99.90;;;12.62;52.72;103265.00;6153033;22;101459;-56
2023/02/13 09:16:00;;;;;;;3.77;1.37;;;12.50;99.90;;;12.73;53.36;103253.50;6155564;22;97439;-57
2023/02/13 09:18:27;;;;;;;1.23;0.70;;;12.50;99.90;;;13.00;52.24;103260.41;6151588;22;96644;-54
2023/02/13 09:21:01;;;;;;;9.00;1.93;;;12.80;99.90;;;13.09;52.08;103262.16;6156273;22;97556;-54
2023/02/13 09:23:32;;;;;;;3.10;1.50;;;13.00;99.90;;;13.23;50.99;103255.03;6124910;22;103057;-56
2023/02/13 09:26:01;;;;;;;3.40;1.67;;;13.10;99.90;;;13.04;51.56;103258.66;6128430;22;97438;-57
2023/02/13 09:28:28;;;;;;;1.57;0.83;;;13.00;99.90;;;13.18;52.27;103251.56;6121659;22;96774;-56
2023/02/13 09:30:54;;;;;;;2.57;1.20;;;13.00;99.90;;;13.33;50.96;103256.75;6162263;22;96756;-57
2023/02/13 09:33:20;;;;;;;3.33;1.60;;;13.10;99.90;;;13.32;51.43;103248.81;6159253;22;99027;-57
2023/02/13 09:35:46;;;;;;;2.40;1.20;;;13.10;99.90;;;13.42;50.46;103249.63;6162407;22;102166;-57
2023/02/13 09:38:12;;;;;;;4.17;2.33;;;13.30;99.90;;;13.41;50.83;103251.41;6158073;22;110419;-56
2023/02/13 09:40:52;;;;;;;4.23;1.90;;;13.30;99.90;;;13.53;50.61;103253.09;6164273;22;97314;-58
2023/02/13 09:43:33;;;;;;;4.17;1.80;;;13.30;99.90;;;13.40;51.35;103253.16;6131867;22;100343;-56
2023/02/13 09:46:09;;;;;;;4.60;1.53;;;13.20;99.90;;;13.30;51.56;103259.41;6135873;22;97241;-58
2023/02/13 09:48:38;;;;;;;6.47;2.07;;;13.10;99.90;;;13.23;51.04;103252.41;6159592;22;97210;-57
2023/02/13 09:51:05;;;;;;;2.53;1.60;;;13.10;99.90;;;13.17;51.40;103255.06;6161109;22;96702;-58
2023/02/13 09:53:35;;;;;;;2.60;1.77;;;13.00;99.90;;;13.14;52.13;103255.06;6162708;22;97703;-58
2023/02/13 09:56:25;;;;;;;2.77;1.33;;;12.90;99.90;;;13.15;51.86;103245.31;6158268;22;98951;-56
2023/02/13 09:59:20;;;;;;;1.27;0.70;;;12.90;99.90;;;13.25;51.09;103258.56;6136644;22;97120;-57
2023/02/13 10:01:49;;;;;;;4.53;2.33;;;13.10;99.90;;;13.18;50.96;103255.94;6140974;22;96847;-57
2023/02/13 10:04:47;;;;;;;3.57;1.77;;;13.10;99.90;;;13.16;51.71;103261.22;6158054;22;108686;-56
2023/02/13 10:08:02;;;;;;;3.60;2.03;;;13.00;99.90;;;13.22;50.99;103263.00;6158067;22;97693;-56
2023/02/13 10:11:12;;;;;;;3.67;1.90;;;13.10;99.90;;;13.16;51.17;103253.28;6161467;22;97349;-56
2023/02/13 10:13:52;;;;;;;4.80;2.23;;;13.10;99.90;;;13.14;51.25;103254.16;6159378;22;97211;-56
2023/02/13 10:16:34;;;;;;;3.00;1.73;;;13.10;99.90;;;13.05;51.08;103256.00;6159629;22;98544;-58
2023/02/13 10:19:27;;;;;;;3.43;2.00;;;13.00;99.90;;;13.05;51.62;103257.78;6136064;22;96764;-57
2023/02/13 10:22:10;;;;;;;5.77;2.00;;;13.00;99.90;;;13.03;51.55;103252.47;6132119;22;97355;-58
2023/02/13 10:24:50;;;;;;;2.97;1.60;;;13.00;99.90;;;13.08;51.40;103255.09;6132886;22;97192;-57
2023/02/13 10:28:08;;;;;;;4.70;2.23;;;13.10;99.90;;;13.16;51.45;103252.38;6159336;22;96566;-57
2023/02/13 10:30:49;;;;;;;1.33;0.70;;;13.20;99.90;;;13.37;51.61;103247.91;6132438;22;102545;-57
2023/02/13 10:33:39;;;;;;;6.40;1.73;;;13.30;99.90;;;13.56;50.68;103250.41;6133798;22;96990;-55
2023/02/13 10:36:08;;;;;;;3.00;1.97;;;13.60;99.90;;;13.66;51.04;103254.75;6132512;22;96935;-57
2023/02/13 10:38:43;;;;;;;2.77;1.60;;;13.70;99.90;;;13.80;50.50;103252.88;6163287;22;96609;-57
2023/02/13 10:41:51;;;;;;;3.53;1.73;;;13.90;99.90;;;13.87;49.75;103251.94;6158770;22;97300;-56
2023/02/13 10:44:34;;;;;;;1.53;1.00;;;13.90;99.90;;;14.04;49.58;103256.25;6158701;22;97714;-58
2023/02/13 10:47:09;;;;;;;1.93;1.33;;;14.10;99.90;;;14.22;48.91;103248.97;6160024;22;99226;-56
2023/02/13 10:49:44;;;;;;;2.27;1.13;;;14.30;99.90;;;14.38;48.67;103257.66;6160463;22;101505;-55
2023/02/13 10:52:28;;;;;;;3.20;1.63;;;14.50;99.90;;;14.46;49.03;103244.31;6160255;22;97778;-55
2023/02/13 10:55:18;;;;;;;3.63;2.10;;;14.60;99.90;;;14.58;48.37;103255.69;6163428;22;97406;-57
2023/02/13 10:58:14;;;;;;;3.80;2.10;;;14.70;99.90;;;14.64;48.65;103245.91;6158113;22;96891;-58
2023/02/13 11:01:29;;;;;;;3.10;1.77;;;14.80;99.90;;;14.72;48.34;103246.69;6133043;22;102540;-56
2023/02/13 11:04:11;;;;;;;4.60;1.80;;;14.80;99.90;;;14.71;48.74;103250.22;6034418;22;103336;-58
2023/02/13 11:06:53;;;;;;;3.57;1.60;;;14.80;99.90;;;14.72;48.03;103236.03;6131783;22;96891;-58
2023/02/13 11:09:19;;;;;;;3.67;1.77;;;14.90;99.90;;;14.73;47.71;103229.84;6159841;22;97833;-57
2023/02/13 11:11:45;;;;;;;3.37;2.00;;;14.90;99.90;;;14.76;48.08;103227.16;6160636;22;109894;-57
2023/02/13 11:14:19;;;;;;;2.17;1.40;;;14.90;99.90;;;14.83;48.62;103218.19;6159877;22;97407;-58
2023/02/13 11:17:08;;;;;;;2.63;1.70;;;15.00;99.90;;;14.87;48.04;103219.91;6161330;22;96634;-57